Time;durP1;ratioP1;P1;durP2;ratioP2;P2;SDS_P1;SDS_P2;PMS_P1;PMS_P2;Temp;Humidity;BMP_temperature;BMP_pressure;BME280_temperature;BME280_humidity;BME280_pressure;Samples;Min_cycle;Max_cycle;Signal;HPM_P1;HPM_P2
2022/07/08 00:01:17;;;;;;;6.95;2.20;;;15.30;99.90;;;-141.84;68.27;19673.59;5030234;28;20235;-60
2022/07/08 00:03:47;;;;;;;8.55;2.42;;;15.40;99.90;;;-141.84;67.66;19620.78;5030676;28;20669;-60
2022/07/08 00:06:15;;;;;;;4.95;2.20;;;15.30;99.90;;;-141.84;67.94;19651.25;5030230;28;20709;-60
2022/07/08 00:08:44;;;;;;;8.80;2.60;;;15.40;99.90;;;-141.84;68.78;19614.66;5030673;28;20225;-58
2022/07/08 00:11:12;;;;;;;8.98;2.80;;;15.40;99.90;;;-141.84;68.39;19628.91;5030515;28;20209;-61
2022/07/08 00:13:40;;;;;;;9.52;2.78;;;15.40;99.90;;;-141.84;67.52;19653.28;5030285;28;20228;-60
2022/07/08 00:16:09;;;;;;;7.07;2.70;;;15.40;99.90;;;-141.84;65.58;19695.97;5029771;28;20222;-60
2022/07/08 00:18:37;;;;;;;7.30;3.00;;;15.50;99.90;;;-141.84;66.19;19691.91;5030378;28;20910;-59
2022/07/08 00:21:07;;;;;;;8.20;2.47;;;15.50;99.90;;;-141.84;66.38;19661.41;5029998;28;20226;-60
2022/07/08 00:23:35;;;;;;;9.70;2.90;;;15.50;99.90;;;-141.84;66.95;19653.28;5030351;28;20212;-60
2022/07/08 00:26:03;;;;;;;7.03;2.30;;;15.50;99.90;;;-141.84;67.83;19643.13;5030841;28;20588;-59
2022/07/08 00:28:31;;;;;;;10.05;3.03;;;15.50;99.90;;;-141.84;67.42;19645.16;5030146;28;20309;-61
2022/07/08 00:30:59;;;;;;;8.88;2.50;;;15.40;99.90;;;-141.84;67.17;19659.38;5029931;28;20245;-59
2022/07/08 00:33:28;;;;;;;9.27;2.05;;;15.50;99.90;;;-141.84;68.10;19630.94;5030152;28;20309;-58
2022/07/08 00:35:56;;;;;;;9.80;2.70;;;15.50;99.90;;;-141.84;68.19;19639.06;5030026;28;20713;-60
2022/07/08 00:38:25;;;;;;;11.40;2.90;;;15.50;99.90;;;-141.84;68.41;19618.75;5030259;28;20288;-61
2022/07/08 00:40:54;;;;;;;7.57;2.80;;;15.50;99.90;;;-141.84;66.64;19661.41;5031183;28;20202;-60
2022/07/08 00:43:37;;;;;;;8.77;2.60;;;15.50;99.90;;;-141.84;66.73;19657.34;5029985;28;20237;-60
2022/07/08 00:46:07;;;;;;;8.50;2.78;;;15.50;99.90;;;-141.84;67.68;19643.13;5030249;28;20217;-59
2022/07/08 00:48:36;;;;;;;7.22;2.47;;;15.40;99.90;;;-141.84;66.30;19687.84;5030021;28;20717;-60
2022/07/08 00:51:08;;;;;;;9.48;2.97;;;15.50;99.90;;;-141.84;67.05;19624.84;5030161;28;20260;-60
2022/07/08 00:53:42;;;;;;;11.23;2.97;;;15.50;99.90;;;-141.84;67.45;19663.44;5029774;28;20226;-61
2022/07/08 00:56:11;;;;;;;9.57;2.83;;;15.50;99.90;;;-141.84;68.63;19643.13;5030451;28;20259;-60
2022/07/08 00:58:41;;;;;;;5.88;2.58;;;15.40;99.90;;;-141.84;69.05;19630.94;5032282;28;20314;-60
2022/07/08 01:01:09;;;;;;;6.35;2.72;;;15.40;99.90;;;-141.84;68.58;19618.75;5033786;28;20305;-60
2022/07/08 01:03:38;;;;;;;8.68;2.92;;;15.50;99.90;;;-141.84;67.68;19667.50;5033824;28;20237;-60
2022/07/08 01:06:07;;;;;;;10.73;2.70;;;15.40;99.90;;;-141.84;67.08;19665.47;5034004;28;20616;-60
2022/07/08 01:08:36;;;;;;;9.00;2.80;;;15.50;99.90;;;-141.84;67.84;19651.25;5033785;28;20238;-60
2022/07/08 01:11:05;;;;;;;8.52;2.50;;;15.40;99.90;;;-141.84;68.05;19667.50;5034156;28;20204;-60
2022/07/08 01:13:34;;;;;;;11.68;2.80;;;15.50;99.90;;;-141.84;67.65;19643.13;5033615;28;20225;-60
2022/07/08 01:16:02;;;;;;;8.40;2.60;;;15.50;99.90;;;-141.84;68.61;19669.53;5033433;28;20835;-60
2022/07/08 01:18:32;;;;;;;14.07;2.90;;;15.40;99.90;;;-141.84;68.41;19657.34;5033589;28;20631;-59
2022/07/08 01:21:03;;;;;;;8.35;2.83;;;15.50;99.90;;;-141.84;67.73;19653.28;5033358;28;20717;-60
2022/07/08 01:23:32;;;;;;;7.97;3.00;;;15.50;99.90;;;-141.84;67.76;19663.44;5033627;28;20266;-60
2022/07/08 01:26:08;;;;;;;11.68;3.05;;;15.50;99.90;;;-141.84;68.64;19675.63;5034146;28;20221;-60
2022/07/08 01:28:39;;;;;;;9.45;2.60;;;15.50;99.90;;;-141.84;68.43;19632.97;5033083;28;20381;-59
2022/07/08 01:31:08;;;;;;;9.30;2.65;;;15.50;99.90;;;-141.84;69.05;19632.97;5033361;28;20252;-59
2022/07/08 01:33:36;;;;;;;9.05;3.03;;;15.40;99.90;;;-141.84;68.77;19600.44;5033391;28;20225;-59
2022/07/08 01:36:07;;;;;;;10.32;3.83;;;15.40;99.90;;;-141.84;69.30;19616.72;5033301;28;20226;-60
2022/07/08 01:38:36;;;;;;;10.18;3.40;;;15.40;99.90;;;-141.84;69.33;19578.09;5033226;28;20265;-59
2022/07/08 01:41:04;;;;;;;9.20;3.28;;;15.30;99.90;;;-141.84;68.71;19635.00;5033759;28;20329;-60
2022/07/08 01:43:32;;;;;;;12.02;2.85;;;15.40;99.90;;;-141.84;69.19;19632.97;5033048;28;20229;-59
2022/07/08 01:46:01;;;;;;;17.63;3.70;;;15.40;99.90;;;-141.84;69.17;19655.31;5032909;28;20305;-60
2022/07/08 01:48:29;;;;;;;12.02;3.05;;;15.40;99.90;;;-141.84;69.06;19645.16;5033032;28;20222;-60
2022/07/08 01:50:58;;;;;;;8.82;3.35;;;15.30;99.90;;;-141.84;69.46;19610.59;5033071;28;20226;-60
2022/07/08 01:53:27;;;;;;;7.13;2.90;;;15.30;99.90;;;-141.84;70.13;19604.50;5032758;28;20237;-60
2022/07/08 01:55:56;;;;;;;9.85;3.15;;;15.30;99.90;;;-141.84;69.41;19612.63;5033489;28;20248;-60
2022/07/08 01:58:24;;;;;;;11.52;3.00;;;15.30;99.90;;;-141.84;69.95;19679.72;5032729;28;20222;-60
2022/07/08 02:00:53;;;;;;;10.50;3.38;;;15.30;99.90;;;-141.84;69.46;19637.03;5032493;28;20245;-59
2022/07/08 02:03:21;;;;;;;11.55;3.28;;;15.40;99.90;;;-141.84;70.20;19608.56;5032547;28;20218;-60
2022/07/08 02:05:49;;;;;;;10.80;3.60;;;15.30;99.90;;;-141.84;69.18;19649.22;5032929;28;20233;-60
2022/07/08 02:08:17;;;;;;;11.38;3.70;;;15.30;99.90;;;-141.84;69.51;19600.44;5032936;28;20245;-61
2022/07/08 02:13:32;;;;;;;10.20;4.00;;;15.30;99.90;;;-141.84;70.08;19600.44;5012802;28;20313;-60
2022/07/08 02:16:01;;;;;;;10.50;3.40;;;15.30;99.90;;;-141.84;71.13;19594.34;5025941;28;20224;-60
2022/07/08 02:18:29;;;;;;;14.23;3.10;;;15.20;99.90;;;-141.84;69.72;19620.78;5032360;28;20959;-59
2022/07/08 02:20:58;;;;;;;9.20;3.30;;;15.20;99.90;;;-141.84;69.94;19604.50;5032312;28;20230;-60
2022/07/08 02:23:26;;;;;;;10.75;3.88;;;15.30;99.90;;;-141.84;69.89;19614.66;5032500;28;20208;-60
2022/07/08 02:25:56;;;;;;;10.23;3.60;;;15.20;99.90;;;-141.84;70.95;19541.50;5032679;28;20293;-60
2022/07/08 02:28:25;;;;;;;8.35;3.22;;;15.20;99.90;;;-141.84;71.20;19598.41;5032011;28;20250;-59
2022/07/08 02:30:53;;;;;;;7.95;3.08;;;15.20;99.90;;;-141.84;71.37;19569.97;5031803;28;20261;-60
2022/07/08 02:33:21;;;;;;;12.77;3.35;;;15.20;99.90;;;-141.84;71.47;19582.16;5031892;28;20249;-60
2022/07/08 02:35:49;;;;;;;10.20;3.40;;;15.20;99.90;;;-141.84;71.67;19555.75;5032407;28;20222;-60
2022/07/08 02:38:17;;;;;;;8.90;3.20;;;15.20;99.90;;;-141.84;72.13;19543.53;5032493;28;20621;-61
2022/07/08 02:40:46;;;;;;;15.82;3.70;;;15.20;99.90;;;-141.84;71.04;19624.84;5032296;28;20297;-61
2022/07/08 02:43:15;;;;;;;12.27;3.03;;;15.20;99.90;;;-141.84;71.73;19580.13;5031989;28;20705;-60
2022/07/08 02:45:43;;;;;;;13.20;3.75;;;15.20;99.90;;;-141.84;70.76;19612.63;5031872;28;20316;-60
2022/07/08 02:48:11;;;;;;;11.50;3.35;;;15.20;99.90;;;-141.84;71.32;19594.34;5031760;28;20226;-60
2022/07/08 02:50:40;;;;;;;12.55;3.88;;;15.30;99.90;;;-141.84;71.17;19618.75;5031783;28;20599;-60
2022/07/08 02:53:08;;;;;;;11.48;3.63;;;15.20;99.90;;;-141.84;71.14;19598.41;5032297;28;20304;-58
2022/07/08 02:55:36;;;;;;;9.45;3.60;;;15.20;99.90;;;-141.84;71.10;19602.47;5031386;28;20232;-59
2022/07/08 02:58:04;;;;;;;13.18;3.25;;;15.20;99.90;;;-141.84;70.71;19578.09;5031899;28;20809;-59
2022/07/08 03:00:34;;;;;;;13.00;3.10;;;15.20;99.90;;;-141.84;70.62;19580.13;5031530;28;20305;-61
2022/07/08 03:03:02;;;;;;;10.48;3.22;;;15.20;99.90;;;-141.84;70.62;19618.75;5031968;28;20321;-60
2022/07/08 03:05:30;;;;;;;13.38;3.85;;;15.20;99.90;;;-141.84;69.85;19606.53;5031455;28;20236;-60
2022/07/08 03:07:58;;;;;;;11.13;3.92;;;15.30;99.90;;;-141.84;70.90;19606.53;5032439;28;20198;-60
2022/07/08 03:10:27;;;;;;;12.20;3.47;;;15.30;99.90;;;-141.84;71.47;19590.28;5031446;28;20250;-59
2022/07/08 03:12:55;;;;;;;11.77;3.17;;;15.20;99.90;;;-141.84;71.32;19594.34;5030563;28;20675;-59
2022/07/08 03:15:23;;;;;;;9.73;3.40;;;15.20;99.90;;;-141.84;71.64;19602.47;5031226;28;20727;-59
2022/07/08 03:17:52;;;;;;;12.38;3.88;;;15.30;99.90;;;-141.84;70.69;19578.09;5031628;28;20257;-60
2022/07/08 03:20:21;;;;;;;9.57;3.67;;;15.20;99.90;;;-141.84;71.10;19610.59;5030957;28;20700;-60
2022/07/08 03:22:49;;;;;;;10.70;3.50;;;15.20;99.90;;;-141.84;71.74;19543.53;5031157;28;20293;-60
2022/07/08 03:25:17;;;;;;;10.50;3.33;;;15.20;99.90;;;-141.84;72.38;19588.25;5031304;28;20320;-59
2022/07/08 03:27:48;;;;;;;9.20;3.20;;;15.20;99.90;;;-141.84;72.20;19553.72;5031333;28;20232;-60
2022/07/08 03:30:16;;;;;;;10.43;3.20;;;15.20;99.90;;;-141.84;72.17;19555.75;5031216;28;20218;-61
2022/07/08 03:32:44;;;;;;;10.10;3.45;;;15.20;99.90;;;-141.84;71.63;19576.06;5031031;28;20744;-60
2022/07/08 03:35:14;;;;;;;11.25;3.45;;;15.20;99.90;;;-141.84;71.55;19580.13;5031972;28;20238;-59
2022/07/08 03:37:43;;;;;;;10.95;3.20;;;15.20;99.90;;;-141.84;72.18;19559.81;5030868;28;20244;-60
2022/07/08 03:42:59;;;;;;;9.20;2.75;;;15.10;99.90;;;-141.84;72.77;19569.97;5031103;28;20264;-59
2022/07/08 03:45:27;;;;;;;9.18;3.10;;;15.10;99.90;;;-141.84;73.50;19541.50;5030556;28;20717;-59
2022/07/08 03:47:56;;;;;;;8.63;3.33;;;15.10;99.90;;;-141.84;73.34;19547.59;5031584;28;20230;-60
2022/07/08 03:50:26;;;;;;;11.25;3.20;;;15.10;99.90;;;-141.84;73.24;19549.63;5030951;28;20287;-60
2022/07/08 03:52:54;;;;;;;11.75;3.40;;;15.10;99.90;;;-141.84;72.15;19602.47;5031587;28;20198;-59
2022/07/08 03:55:24;;;;;;;8.88;3.33;;;15.10;99.90;;;-141.84;72.70;19586.22;5030662;28;20228;-60
2022/07/08 03:57:53;;;;;;;8.98;3.05;;;15.10;99.90;;;-141.84;72.96;19541.50;5030950;28;20233;-60
2022/07/08 04:00:22;;;;;;;9.10;3.03;;;15.10;99.90;;;-141.84;73.14;19551.69;5030054;28;20706;-60
2022/07/08 04:02:51;;;;;;;11.55;3.10;;;15.10;99.90;;;-141.84;72.80;19521.19;5030913;28;20665;-60
2022/07/08 04:05:19;;;;;;;10.80;3.63;;;15.10;99.90;;;-141.84;73.41;19557.78;5030881;28;20300;-61
2022/07/08 04:07:49;;;;;;;8.52;3.33;;;15.10;99.90;;;-141.84;73.51;19547.59;5030900;28;20198;-60
2022/07/08 04:10:17;;;;;;;8.80;3.40;;;15.00;99.90;;;-141.84;74.55;19539.47;5030520;28;20256;-60
2022/07/08 04:12:45;;;;;;;14.52;3.80;;;15.00;99.90;;;-141.84;73.60;19533.38;5012345;28;20234;-60
2022/07/08 04:15:13;;;;;;;10.63;3.17;;;15.00;99.90;;;-141.84;73.95;19533.38;5010536;28;20789;-61
2022/07/08 04:17:42;;;;;;;10.80;3.67;;;15.00;99.90;;;-141.84;73.80;19537.44;5010781;28;20234;-61
2022/07/08 04:20:10;;;;;;;11.70;3.70;;;15.10;99.90;;;-141.84;73.59;19543.53;5015541;28;20305;-60
2022/07/08 04:22:39;;;;;;;14.80;3.67;;;15.10;99.90;;;-141.84;73.59;19549.63;5030413;28;20601;-58
2022/07/08 04:25:09;;;;;;;10.30;3.22;;;15.10;99.90;;;-141.84;73.78;19557.78;5030261;28;20226;-61
2022/07/08 04:27:37;;;;;;;11.35;3.15;;;15.10;99.90;;;-141.84;74.08;19545.56;5030426;28;20249;-59
2022/07/08 04:30:07;;;;;;;16.95;3.88;;;15.10;99.90;;;-141.84;74.21;19529.31;5030358;28;20268;-60
2022/07/08 04:32:36;;;;;;;14.27;3.95;;;15.00;99.90;;;-141.84;73.98;19488.69;5030204;28;20233;-59
2022/07/08 04:35:05;;;;;;;16.95;4.15;;;15.00;99.90;;;-141.84;73.57;19582.16;5030957;28;20198;-59
2022/07/08 04:37:33;;;;;;;11.55;3.28;;;15.00;99.90;;;-141.84;73.62;19539.47;5030384;28;20233;-61
2022/07/08 04:40:01;;;;;;;9.60;3.30;;;15.20;99.90;;;-141.84;72.47;19547.59;5030418;28;20249;-61
2022/07/08 04:42:30;;;;;;;13.02;3.67;;;15.10;99.90;;;-141.84;72.11;19576.06;5030476;28;20280;-59
2022/07/08 04:44:58;;;;;;;12.02;3.40;;;15.20;99.90;;;-141.84;72.79;19580.13;5030269;28;20250;-59
2022/07/08 04:47:27;;;;;;;11.25;3.45;;;15.20;99.90;;;-141.84;72.44;19572.00;5029123;28;20194;-60
2022/07/08 04:49:55;;;;;;;10.95;3.20;;;15.20;99.90;;;-141.84;71.76;19594.34;5030811;28;20212;-60
2022/07/08 04:52:23;;;;;;;13.57;3.30;;;15.30;99.90;;;-141.84;71.31;19590.28;5029728;28;20792;-60
2022/07/08 04:54:51;;;;;;;11.05;3.67;;;15.30;99.90;;;-141.84;71.43;19616.72;5030235;28;20222;-59
2022/07/08 04:57:19;;;;;;;12.27;3.50;;;15.30;99.90;;;-141.84;71.02;19586.22;5029890;28;20328;-59
2022/07/08 04:59:49;;;;;;;14.40;3.55;;;15.40;99.90;;;-141.84;70.34;19614.66;5030208;28;20305;-60
2022/07/08 05:02:17;;;;;;;10.02;3.20;;;15.50;99.90;;;-141.84;70.22;19653.28;5030519;28;20226;-60
2022/07/08 05:04:45;;;;;;;8.73;2.80;;;15.50;99.90;;;-141.84;71.02;19614.66;5030266;28;20658;-59
2022/07/08 05:07:13;;;;;;;15.95;3.80;;;15.60;99.90;;;-141.84;69.78;19637.03;5029747;28;20321;-61
2022/07/08 05:09:41;;;;;;;11.98;3.03;;;15.60;99.90;;;-141.84;70.62;19622.81;5030066;28;20287;-59
2022/07/08 05:12:11;;;;;;;12.68;3.20;;;15.60;99.90;;;-141.84;70.80;19624.84;5016545;28;20245;-59
2022/07/08 05:14:39;;;;;;;9.23;3.20;;;15.60;99.90;;;-141.84;70.73;19612.63;5010070;28;20710;-58
2022/07/08 05:17:08;;;;;;;10.68;2.80;;;15.50;99.90;;;-141.84;70.94;19632.97;5010387;28;20219;-59
2022/07/08 05:19:37;;;;;;;9.90;2.92;;;15.50;99.90;;;-141.84;70.76;19626.88;5010089;28;20226;-59
2022/07/08 05:22:05;;;;;;;10.73;3.38;;;15.40;99.90;;;-141.84;71.51;19576.06;5029639;28;20321;-59
2022/07/08 05:24:33;;;;;;;10.88;2.92;;;15.50;99.90;;;-141.84;70.26;19620.78;5029695;28;20222;-60
2022/07/08 05:27:01;;;;;;;10.50;3.10;;;15.40;99.90;;;-141.84;70.69;19576.06;5029389;28;20868;-59
2022/07/08 05:29:29;;;;;;;11.32;2.83;;;15.40;99.90;;;-141.84;71.32;19598.41;5029886;28;20285;-60
2022/07/08 05:31:57;;;;;;;9.48;2.95;;;15.50;99.90;;;-141.84;70.37;19578.09;5029852;28;20692;-59
2022/07/08 05:34:27;;;;;;;8.65;3.28;;;15.50;99.90;;;-141.84;70.17;19610.59;5029862;28;20606;-64
2022/07/08 05:36:55;;;;;;;9.50;2.97;;;15.50;99.90;;;-141.84;70.80;19616.72;5029664;28;20233;-64
2022/07/08 05:39:23;;;;;;;12.02;2.70;;;15.50;99.90;;;-141.84;69.98;19641.09;5029793;28;20309;-64
2022/07/08 05:41:51;;;;;;;11.63;3.00;;;15.60;99.90;;;-141.84;70.56;19626.88;5029622;28;20736;-64
2022/07/08 05:44:20;;;;;;;10.40;2.83;;;15.60;99.90;;;-141.84;69.27;19647.19;5030260;28;20252;-64
2022/07/08 05:46:48;;;;;;;7.72;2.70;;;15.70;99.90;;;-141.84;69.61;19635.00;5033687;28;20294;-63
2022/07/08 05:49:16;;;;;;;9.80;2.97;;;15.60;99.90;;;-141.84;69.29;19651.25;5033221;28;20222;-64
2022/07/08 05:51:46;;;;;;;11.50;3.05;;;15.70;99.90;;;-141.84;68.95;19641.09;5033119;28;20668;-64
2022/07/08 05:54:14;;;;;;;7.38;2.70;;;15.70;99.90;;;-141.84;67.49;19685.81;5033087;28;20226;-64
2022/07/08 05:56:42;;;;;;;8.27;2.63;;;15.80;99.90;;;-141.84;68.19;19663.44;5033226;28;20225;-64
2022/07/08 05:59:10;;;;;;;7.40;2.88;;;15.80;99.90;;;-141.84;67.33;19683.78;5033621;28;20313;-64
2022/07/08 06:01:38;;;;;;;10.75;2.70;;;15.80;99.90;;;-141.84;68.50;19643.13;5032564;28;20225;-64
2022/07/08 06:04:06;;;;;;;5.43;2.30;;;15.80;99.90;;;-141.84;67.53;19704.09;5032922;28;20225;-62
2022/07/08 06:06:34;;;;;;;12.15;2.88;;;15.80;99.90;;;-141.84;67.53;19673.59;5032527;28;20233;-63
2022/07/08 06:09:04;;;;;;;11.88;3.30;;;15.90;99.90;;;-141.84;67.26;19679.72;5032656;28;20222;-64
2022/07/08 06:11:32;;;;;;;7.25;2.90;;;15.90;99.90;;;-141.84;66.87;19708.16;5024532;28;20203;-65
2022/07/08 06:14:03;;;;;;;8.35;2.50;;;16.00;99.90;;;-141.84;67.00;19698.00;5013276;28;20221;-66
2022/07/08 06:16:32;;;;;;;10.35;2.40;;;16.00;99.90;;;-141.84;66.92;19718.31;5012895;28;20710;-64
2022/07/08 06:19:00;;;;;;;6.47;2.28;;;16.10;99.90;;;-141.84;65.77;19742.72;5012792;28;20326;-64
2022/07/08 06:21:28;;;;;;;9.50;2.33;;;16.20;99.90;;;-141.84;65.60;19763.03;5027787;28;20262;-63
2022/07/08 06:23:57;;;;;;;8.98;2.72;;;16.30;99.90;;;-141.84;63.77;19783.34;5032696;28;20257;-64
2022/07/08 06:26:26;;;;;;;10.15;3.05;;;16.40;99.90;;;-141.84;64.49;19771.16;5032721;28;20201;-64
2022/07/08 06:28:54;;;;;;;12.52;3.50;;;16.40;99.90;;;-141.84;64.01;19797.59;5032670;28;20281;-65
2022/07/08 06:31:23;;;;;;;5.70;2.03;;;16.40;99.90;;;-141.84;64.28;19824.00;5032130;28;20253;-64
2022/07/08 06:33:56;;;;;;;8.20;2.38;;;16.40;99.90;;;-141.84;64.99;19779.28;5032211;28;20637;-64
2022/07/08 06:36:24;;;;;;;7.82;2.65;;;16.40;99.90;;;-141.84;63.36;19809.78;5032277;28;20320;-63
2022/07/08 06:38:53;;;;;;;9.35;2.72;;;16.40;99.90;;;-141.84;62.85;19830.09;5032278;28;20236;-64
2022/07/08 06:41:28;;;;;;;8.05;2.83;;;16.50;99.90;;;-141.84;62.63;19819.94;5032408;28;20231;-64
2022/07/08 06:43:56;;;;;;;7.30;2.50;;;16.60;99.90;;;-141.84;62.05;19838.22;5032837;28;20293;-64
2022/07/08 06:46:24;;;;;;;10.38;3.15;;;16.60;99.90;;;-141.84;61.03;19887.00;5032060;28;20313;-63
2022/07/08 06:48:54;;;;;;;7.85;2.83;;;16.70;99.90;;;-141.84;61.47;19838.22;5031769;28;20217;-64
2022/07/08 06:51:22;;;;;;;7.57;2.53;;;16.70;99.90;;;-141.84;60.89;19882.94;5031845;28;20715;-64
2022/07/08 06:56:37;;;;;;;7.88;2.60;;;16.80;99.90;;;-141.84;60.35;19923.59;5031775;28;20230;-64
2022/07/08 06:59:06;;;;;;;13.30;2.40;;;16.90;99.90;;;-141.84;58.32;19988.63;5032199;28;20222;-65
2022/07/08 07:01:35;;;;;;;9.07;2.38;;;17.10;99.90;;;-141.84;58.82;19950.00;5031749;28;20226;-64
2022/07/08 07:04:03;;;;;;;6.00;2.03;;;17.00;99.90;;;-141.84;57.66;20027.25;5031754;28;20743;-64
2022/07/08 07:06:31;;;;;;;7.90;2.47;;;17.40;99.90;;;-141.84;56.35;20061.78;5031814;28;20665;-64
2022/07/08 07:09:00;;;;;;;11.88;2.60;;;17.60;99.90;;;-141.84;55.75;20110.56;5031904;28;20324;-64
2022/07/08 07:11:28;;;;;;;7.25;2.50;;;17.70;99.90;;;-141.84;56.27;20096.34;5024230;28;20285;-65
2022/07/08 07:13:57;;;;;;;7.47;2.00;;;17.80;99.90;;;-141.84;55.26;20137.00;5012587;28;20203;-63
2022/07/08 07:16:25;;;;;;;5.38;2.05;;;17.90;99.90;;;-141.84;54.81;20202.03;5011577;28;20298;-64
2022/07/08 07:18:54;;;;;;;7.38;2.00;;;18.00;99.90;;;-141.84;54.32;20177.66;5011631;28;20234;-64
2022/07/08 07:21:22;;;;;;;6.55;2.58;;;18.20;99.90;;;-141.84;54.66;20139.03;5025809;28;20769;-64
2022/07/08 07:23:50;;;;;;;9.25;2.60;;;18.20;99.90;;;-141.84;54.31;20204.06;5031165;28;20731;-64
2022/07/08 07:26:19;;;;;;;8.38;2.13;;;18.20;99.90;;;-141.84;53.51;20208.13;5031795;28;20297;-63
2022/07/08 07:28:47;;;;;;;8.32;2.38;;;18.40;99.90;;;-141.84;53.25;20236.59;5031632;28;20249;-63
2022/07/08 07:31:16;;;;;;;5.72;2.30;;;18.50;99.90;;;-141.84;53.82;20260.97;5030856;28;20229;-65
2022/07/08 07:33:44;;;;;;;8.20;2.47;;;18.40;99.90;;;-141.84;53.29;20191.88;5031210;28;20222;-63
2022/07/08 07:36:13;;;;;;;7.55;2.75;;;18.40;99.90;;;-141.84;54.53;20195.94;5031193;28;20241;-63
2022/07/08 07:38:41;;;;;;;6.22;2.25;;;18.30;99.90;;;-141.84;54.22;20157.31;5031116;28;20260;-64
2022/07/08 07:41:09;;;;;;;8.52;2.30;;;18.30;99.90;;;-141.84;54.65;20128.88;5031729;28;20633;-63
2022/07/08 07:43:37;;;;;;;5.20;2.20;;;18.30;99.90;;;-141.84;54.22;20165.44;5030966;28;20317;-64
2022/07/08 07:46:05;;;;;;;7.80;2.72;;;18.20;99.90;;;-141.84;55.46;20122.78;5030602;28;20252;-63
2022/07/08 07:48:36;;;;;;;5.57;2.30;;;18.10;99.90;;;-141.84;55.27;20090.25;5030901;28;20229;-64
2022/07/08 07:51:05;;;;;;;9.02;2.47;;;18.00;99.90;;;-141.84;55.03;20157.31;5030884;28;20717;-65
2022/07/08 07:53:34;;;;;;;8.00;2.28;;;17.90;99.90;;;-141.84;55.37;20084.16;5030655;28;20296;-64
2022/07/08 07:56:06;;;;;;;6.82;2.10;;;17.90;99.90;;;-141.84;55.52;20114.63;5031692;28;20368;-64
2022/07/08 07:58:35;;;;;;;8.38;2.50;;;17.80;99.90;;;-141.84;55.07;20098.38;5030597;28;20257;-64
2022/07/08 08:01:03;;;;;;;5.18;1.77;;;17.70;99.90;;;-141.84;55.48;20090.25;5030553;28;20664;-63
2022/07/08 08:03:31;;;;;;;6.25;2.35;;;17.60;99.90;;;-141.84;55.53;20110.56;5030714;28;20225;-64
2022/07/08 08:06:01;;;;;;;5.25;1.85;;;17.70;99.90;;;-141.84;54.38;20137.00;5030940;28;20232;-65
2022/07/08 08:08:31;;;;;;;5.07;2.13;;;17.80;99.90;;;-141.84;54.31;20137.00;5030203;28;20442;-64
2022/07/08 08:11:01;;;;;;;5.68;1.90;;;17.80;99.90;;;-141.84;54.16;20145.13;5027322;28;20191;-64
2022/07/08 08:13:29;;;;;;;6.82;1.80;;;17.90;99.90;;;-141.84;54.12;20112.59;5010797;28;20468;-63
2022/07/08 08:15:58;;;;;;;6.43;2.00;;;17.90;99.90;;;-141.84;53.62;20157.31;5010537;28;20227;-64
2022/07/08 08:18:26;;;;;;;5.20;1.67;;;18.00;99.90;;;-141.84;52.50;20200.00;5010676;28;20241;-64
2022/07/08 08:20:56;;;;;;;5.45;1.90;;;18.00;99.90;;;-141.84;53.39;20202.03;5021316;28;20268;-65
2022/07/08 08:23:25;;;;;;;5.32;1.92;;;18.10;99.90;;;-141.84;53.55;20169.53;5030619;28;20305;-65
2022/07/08 08:25:53;;;;;;;5.05;1.95;;;18.00;99.90;;;-141.84;53.60;20220.34;5031054;28;20204;-63
2022/07/08 08:28:21;;;;;;;5.68;1.95;;;17.90;99.90;;;-141.84;53.69;20132.94;5030583;28;20851;-64
2022/07/08 08:30:50;;;;;;;6.72;2.00;;;17.90;99.90;;;-141.84;54.10;20143.09;5030321;28;20309;-63
2022/07/08 08:33:18;;;;;;;10.18;2.35;;;17.90;99.90;;;-141.84;53.67;20130.91;5030653;28;20598;-64
2022/07/08 08:35:46;;;;;;;6.80;2.25;;;17.90;99.90;;;-141.84;55.31;20126.84;5030429;28;20308;-65
2022/07/08 08:38:14;;;;;;;5.95;1.95;;;17.90;99.90;;;-141.84;53.98;20120.75;5031105;28;20289;-65
2022/07/08 08:40:46;;;;;;;5.00;1.88;;;17.80;99.90;;;-141.84;55.29;20096.34;5029843;28;20775;-63
2022/07/08 08:43:15;;;;;;;6.55;2.05;;;17.70;99.90;;;-141.84;54.67;20108.53;5030574;28;20225;-64
2022/07/08 08:45:45;;;;;;;4.93;2.20;;;17.80;99.90;;;-141.84;53.99;20179.69;5030207;28;20257;-63
2022/07/08 08:48:15;;;;;;;8.38;2.47;;;17.90;99.90;;;-141.84;53.18;20200.00;5030207;28;20245;-64
2022/07/08 08:50:56;;;;;;;5.88;2.10;;;18.10;99.90;;;-141.84;52.39;20267.09;5030397;28;20304;-64
2022/07/08 08:53:30;;;;;;;6.22;2.45;;;18.30;99.90;;;-141.84;51.32;20260.97;5029885;28;20187;-63
2022/07/08 08:56:01;;;;;;;5.57;2.22;;;18.40;99.90;;;-141.84;50.94;20328.06;5030621;28;20615;-64
2022/07/08 08:58:31;;;;;;;5.97;2.25;;;18.70;99.90;;;-141.84;50.71;20423.59;5029975;28;20237;-64
2022/07/08 09:00:59;;;;;;;8.05;2.80;;;18.90;99.90;;;-141.84;48.57;20452.06;5029660;28;20321;-64
2022/07/08 09:03:28;;;;;;;8.30;2.88;;;19.10;99.90;;;-141.84;48.58;20456.13;5030223;28;20226;-64
2022/07/08 09:05:56;;;;;;;7.03;1.95;;;19.30;99.90;;;-141.84;48.80;20458.16;5029995;28;20218;-64
2022/07/08 09:08:24;;;;;;;5.47;1.95;;;19.30;99.90;;;-141.84;47.38;20515.06;5030255;28;20300;-64
2022/07/08 09:10:52;;;;;;;5.50;2.15;;;19.40;99.90;;;-141.84;47.99;20502.88;5030169;28;20652;-64
2022/07/08 09:13:25;;;;;;;5.60;2.30;;;19.50;99.90;;;-141.84;48.38;20462.22;5030035;28;20667;-64
2022/07/08 09:15:57;;;;;;;4.43;2.13;;;19.50;99.90;;;-141.84;48.04;20517.09;5029609;28;20266;-64
2022/07/08 09:18:29;;;;;;;5.05;1.85;;;19.60;99.90;;;-141.84;47.35;20452.06;5030023;28;20717;-64
2022/07/08 09:21:00;;;;;;;6.55;1.83;;;19.60;99.90;;;-141.84;48.14;20480.50;5032873;28;20237;-64
2022/07/08 09:23:31;;;;;;;3.95;1.52;;;19.50;99.90;;;-141.84;47.96;20470.34;5033829;28;20293;-64
2022/07/08 09:26:04;;;;;;;5.75;2.17;;;19.30;99.90;;;-141.84;47.93;20456.13;5034289;28;20190;-64
2022/07/08 09:28:36;;;;;;;4.90;1.80;;;19.20;99.90;;;-141.84;46.99;20466.28;5033649;28;20695;-64
2022/07/08 09:31:06;;;;;;;3.53;1.65;;;19.30;99.90;;;-141.84;47.12;20535.41;5033095;28;20222;-65
2022/07/08 09:33:36;;;;;;;4.00;1.70;;;19.50;99.90;;;-141.84;46.84;20559.78;5033541;28;20226;-64
2022/07/08 09:36:07;;;;;;;4.47;1.75;;;19.50;99.90;;;-141.84;46.70;20519.13;5033405;28;20302;-64
2022/07/08 09:38:38;;;;;;;4.10;1.90;;;19.60;99.90;;;-141.84;46.86;20543.53;5033332;28;20659;-64
2022/07/08 09:41:09;;;;;;;3.85;1.80;;;19.70;99.90;;;-141.84;47.61;20529.28;5034079;28;20615;-65
2022/07/08 09:43:46;;;;;;;5.90;2.00;;;19.80;99.90;;;-141.84;45.94;20588.25;5033268;28;20317;-63
2022/07/08 09:46:14;;;;;;;4.55;1.80;;;19.90;99.90;;;-141.84;45.50;20663.47;5032935;28;20221;-63
2022/07/08 09:48:43;;;;;;;4.72;1.50;;;20.20;99.90;;;-141.84;44.06;20710.22;5033166;28;20309;-63
2022/07/08 09:51:11;;;;;;;4.22;2.17;;;20.30;99.90;;;-141.84;43.28;20763.06;5033004;28;20245;-65
2022/07/08 09:53:42;;;;;;;4.45;1.77;;;20.60;99.90;;;-141.84;43.54;20748.84;5033220;28;20313;-64
2022/07/08 09:56:11;;;;;;;3.65;1.70;;;20.70;99.90;;;-141.84;44.16;20738.66;5033614;28;20745;-64
2022/07/08 09:58:39;;;;;;;5.25;1.80;;;20.70;99.90;;;-141.84;44.52;20734.59;5032974;28;20226;-64
2022/07/08 10:01:09;;;;;;;3.50;1.77;;;20.90;99.90;;;-141.84;42.59;20805.75;5032444;28;20716;-65
2022/07/08 10:03:37;;;;;;;5.25;2.08;;;20.90;99.90;;;-141.84;41.96;20803.72;5033006;28;20230;-64
2022/07/08 10:06:06;;;;;;;4.57;2.10;;;21.00;99.90;;;-141.84;43.08;20809.81;5032855;28;20222;-65
2022/07/08 10:08:35;;;;;;;5.40;2.33;;;21.00;99.90;;;-141.84;43.14;20754.94;5033048;28;20212;-64
2022/07/08 10:11:08;;;;;;;7.20;2.40;;;20.80;99.90;;;-141.84;42.67;20817.94;5033193;28;20228;-64
2022/07/08 10:13:38;;;;;;;4.18;2.08;;;20.90;99.90;;;-141.84;42.78;20811.84;5032577;28;20253;-63
2022/07/08 10:16:11;;;;;;;4.80;2.22;;;20.80;99.90;;;-141.84;42.78;20765.09;5032335;28;20796;-63
2022/07/08 10:18:45;;;;;;;3.95;2.17;;;20.80;99.90;;;-141.84;43.33;20787.47;5033006;28;20245;-64